sensor_id;sensor_type;location;lat;lon;timestamp;P1;durP1;ratioP1;P2;durP2;ratioP2
3068;SDS011;1545;51.728;8.796;2023-09-07T00:00:25;14.23;;;7.67;;
3068;SDS011;1545;51.728;8.796;2023-09-07T00:02:52;19.50;;;7.60;;
3068;SDS011;1545;51.728;8.796;2023-09-07T00:05:17;13.47;;;7.87;;
3068;SDS011;1545;51.728;8.796;2023-09-07T00:07:43;15.70;;;8.20;;
3068;SDS011;1545;51.728;8.796;2023-09-07T00:10:08;14.80;;;7.73;;
3068;SDS011;1545;51.728;8.796;2023-09-07T00:12:34;13.43;;;8.27;;
3068;SDS011;1545;51.728;8.796;2023-09-07T00:14:59;14.13;;;8.00;;
3068;SDS011;1545;51.728;8.796;2023-09-07T00:17:25;13.67;;;8.40;;
3068;SDS011;1545;51.728;8.796;2023-09-07T00:19:51;12.13;;;8.23;;
3068;SDS011;1545;51.728;8.796;2023-09-07T00:22:17;12.93;;;8.10;;
3068;SDS011;1545;51.728;8.796;2023-09-07T00:24:43;18.30;;;7.97;;
3068;SDS011;1545;51.728;8.796;2023-09-07T00:27:09;13.27;;;8.03;;
3068;SDS011;1545;51.728;8.796;2023-09-07T00:29:36;13.73;;;7.97;;
3068;SDS011;1545;51.728;8.796;2023-09-07T00:32:03;15.30;;;8.10;;
3068;SDS011;1545;51.728;8.796;2023-09-07T00:34:29;13.93;;;8.20;;
3068;SDS011;1545;51.728;8.796;2023-09-07T00:36:54;16.03;;;8.10;;
3068;SDS011;1545;51.728;8.796;2023-09-07T00:39:20;10.87;;;7.83;;
3068;SDS011;1545;51.728;8.796;2023-09-07T00:41:45;16.20;;;8.70;;
3068;SDS011;1545;51.728;8.796;2023-09-07T00:44:11;17.53;;;8.50;;
3068;SDS011;1545;51.728;8.796;2023-09-07T00:46:36;10.90;;;7.50;;
3068;SDS011;1545;51.728;8.796;2023-09-07T00:49:02;14.63;;;8.40;;
3068;SDS011;1545;51.728;8.796;2023-09-07T00:51:29;12.67;;;8.77;;
3068;SDS011;1545;51.728;8.796;2023-09-07T00:53:55;14.30;;;8.23;;
3068;SDS011;1545;51.728;8.796;2023-09-07T00:56:21;9.13;;;7.07;;
3068;SDS011;1545;51.728;8.796;2023-09-07T00:58:46;14.07;;;7.90;;
3068;SDS011;1545;51.728;8.796;2023-09-07T01:01:12;12.97;;;7.90;;
3068;SDS011;1545;51.728;8.796;2023-09-07T01:03:38;13.43;;;8.40;;
3068;SDS011;1545;51.728;8.796;2023-09-07T01:06:06;11.30;;;8.10;;
3068;SDS011;1545;51.728;8.796;2023-09-07T01:08:46;15.90;;;8.23;;
3068;SDS011;1545;51.728;8.796;2023-09-07T01:11:17;13.63;;;8.63;;
3068;SDS011;1545;51.728;8.796;2023-09-07T01:13:45;13.47;;;8.17;;
3068;SDS011;1545;51.728;8.796;2023-09-07T01:16:11;16.07;;;8.50;;
3068;SDS011;1545;51.728;8.796;2023-09-07T01:18:38;15.90;;;8.47;;
3068;SDS011;1545;51.728;8.796;2023-09-07T01:21:07;17.73;;;9.37;;
3068;SDS011;1545;51.728;8.796;2023-09-07T01:23:40;18.90;;;8.73;;
3068;SDS011;1545;51.728;8.796;2023-09-07T01:26:07;14.50;;;8.50;;
3068;SDS011;1545;51.728;8.796;2023-09-07T01:28:34;16.93;;;8.23;;
3068;SDS011;1545;51.728;8.796;2023-09-07T01:31:00;15.07;;;8.23;;
3068;SDS011;1545;51.728;8.796;2023-09-07T01:33:29;14.90;;;9.13;;
3068;SDS011;1545;51.728;8.796;2023-09-07T01:35:55;13.47;;;9.00;;
3068;SDS011;1545;51.728;8.796;2023-09-07T01:38:20;14.20;;;9.33;;
3068;SDS011;1545;51.728;8.796;2023-09-07T01:40:46;14.30;;;8.80;;
3068;SDS011;1545;51.728;8.796;2023-09-07T01:43:12;14.87;;;10.10;;
3068;SDS011;1545;51.728;8.796;2023-09-07T01:45:38;13.70;;;8.73;;
3068;SDS011;1545;51.728;8.796;2023-09-07T01:48:05;13.30;;;8.83;;
3068;SDS011;1545;51.728;8.796;2023-09-07T01:50:33;12.57;;;9.43;;
3068;SDS011;1545;51.728;8.796;2023-09-07T01:52:59;16.60;;;9.07;;
3068;SDS011;1545;51.728;8.796;2023-09-07T01:55:24;36.97;;;10.63;;
3068;SDS011;1545;51.728;8.796;2023-09-07T01:57:52;17.17;;;10.13;;
3068;SDS011;1545;51.728;8.796;2023-09-07T02:00:17;15.23;;;10.03;;
3068;SDS011;1545;51.728;8.796;2023-09-07T02:02:43;14.20;;;9.87;;
3068;SDS011;1545;51.728;8.796;2023-09-07T02:05:08;13.77;;;9.07;;
3068;SDS011;1545;51.728;8.796;2023-09-07T02:07:34;12.60;;;8.90;;
3068;SDS011;1545;51.728;8.796;2023-09-07T02:10:00;18.97;;;10.03;;
3068;SDS011;1545;51.728;8.796;2023-09-07T02:12:28;18.13;;;9.80;;
3068;SDS011;1545;51.728;8.796;2023-09-07T02:14:53;24.63;;;9.80;;
3068;SDS011;1545;51.728;8.796;2023-09-07T02:17:19;16.83;;;9.80;;
3068;SDS011;1545;51.728;8.796;2023-09-07T02:19:45;13.23;;;8.60;;
3068;SDS011;1545;51.728;8.796;2023-09-07T02:22:11;18.97;;;8.80;;
3068;SDS011;1545;51.728;8.796;2023-09-07T02:24:37;17.23;;;9.77;;
3068;SDS011;1545;51.728;8.796;2023-09-07T02:27:02;15.97;;;8.93;;
3068;SDS011;1545;51.728;8.796;2023-09-07T02:29:28;22.03;;;9.57;;
3068;SDS011;1545;51.728;8.796;2023-09-07T02:31:53;13.37;;;9.17;;
3068;SDS011;1545;51.728;8.796;2023-09-07T02:34:19;19.00;;;9.43;;
3068;SDS011;1545;51.728;8.796;2023-09-07T02:36:45;25.90;;;9.97;;
3068;SDS011;1545;51.728;8.796;2023-09-07T02:39:10;16.43;;;9.10;;
3068;SDS011;1545;51.728;8.796;2023-09-07T02:41:36;16.73;;;9.07;;
3068;SDS011;1545;51.728;8.796;2023-09-07T02:44:03;19.97;;;8.93;;
3068;SDS011;1545;51.728;8.796;2023-09-07T02:46:28;12.73;;;8.60;;
3068;SDS011;1545;51.728;8.796;2023-09-07T02:48:54;12.67;;;8.37;;
3068;SDS011;1545;51.728;8.796;2023-09-07T02:51:22;15.57;;;8.93;;
3068;SDS011;1545;51.728;8.796;2023-09-07T02:53:49;13.33;;;8.63;;
3068;SDS011;1545;51.728;8.796;2023-09-07T02:56:15;22.93;;;8.67;;
3068;SDS011;1545;51.728;8.796;2023-09-07T02:58:40;19.37;;;8.23;;
3068;SDS011;1545;51.728;8.796;2023-09-07T03:01:06;12.50;;;8.90;;
3068;SDS011;1545;51.728;8.796;2023-09-07T03:03:35;18.50;;;8.90;;
3068;SDS011;1545;51.728;8.796;2023-09-07T03:06:34;18.27;;;8.90;;
3068;SDS011;1545;51.728;8.796;2023-09-07T03:08:53;12.40;;;8.67;;
3068;SDS011;1545;51.728;8.796;2023-09-07T03:11:18;15.33;;;9.07;;
3068;SDS011;1545;51.728;8.796;2023-09-07T03:13:44;12.40;;;8.70;;
3068;SDS011;1545;51.728;8.796;2023-09-07T03:16:10;15.37;;;8.57;;
3068;SDS011;1545;51.728;8.796;2023-09-07T03:18:35;20.27;;;9.00;;
3068;SDS011;1545;51.728;8.796;2023-09-07T03:21:01;12.83;;;9.30;;
3068;SDS011;1545;51.728;8.796;2023-09-07T03:23:31;13.50;;;8.97;;
3068;SDS011;1545;51.728;8.796;2023-09-07T03:25:58;15.60;;;9.03;;
3068;SDS011;1545;51.728;8.796;2023-09-07T03:28:24;19.13;;;9.23;;
3068;SDS011;1545;51.728;8.796;2023-09-07T03:30:55;13.63;;;9.07;;
3068;SDS011;1545;51.728;8.796;2023-09-07T03:33:21;17.87;;;9.67;;
3068;SDS011;1545;51.728;8.796;2023-09-07T03:35:47;13.37;;;8.73;;
3068;SDS011;1545;51.728;8.796;2023-09-07T03:38:13;14.90;;;8.63;;
3068;SDS011;1545;51.728;8.796;2023-09-07T03:40:39;15.33;;;9.37;;
3068;SDS011;1545;51.728;8.796;2023-09-07T03:43:04;14.67;;;8.93;;
3068;SDS011;1545;51.728;8.796;2023-09-07T03:45:30;14.47;;;9.50;;
3068;SDS011;1545;51.728;8.796;2023-09-07T03:47:55;18.80;;;9.50;;
3068;SDS011;1545;51.728;8.796;2023-09-07T03:50:21;12.30;;;8.77;;
3068;SDS011;1545;51.728;8.796;2023-09-07T03:52:47;26.33;;;9.37;;
3068;SDS011;1545;51.728;8.796;2023-09-07T03:55:12;13.90;;;9.20;;
3068;SDS011;1545;51.728;8.796;2023-09-07T03:57:38;28.67;;;9.77;;
3068;SDS011;1545;51.728;8.796;2023-09-07T04:00:03;14.07;;;8.87;;
3068;SDS011;1545;51.728;8.796;2023-09-07T04:02:33;26.40;;;9.40;;
3068;SDS011;1545;51.728;8.796;2023-09-07T04:04:59;14.90;;;9.23;;
3068;SDS011;1545;51.728;8.796;2023-09-07T04:07:26;22.63;;;9.47;;
3068;SDS011;1545;51.728;8.796;2023-09-07T04:09:52;16.53;;;10.20;;
3068;SDS011;1545;51.728;8.796;2023-09-07T04:12:17;16.67;;;9.60;;
3068;SDS011;1545;51.728;8.796;2023-09-07T04:14:43;28.27;;;9.97;;
3068;SDS011;1545;51.728;8.796;2023-09-07T04:17:09;14.67;;;9.13;;
3068;SDS011;1545;51.728;8.796;2023-09-07T04:19:35;14.17;;;9.47;;
3068;SDS011;1545;51.728;8.796;2023-09-07T04:22:01;17.83;;;9.60;;
3068;SDS011;1545;51.728;8.796;2023-09-07T04:24:26;17.00;;;9.20;;
3068;SDS011;1545;51.728;8.796;2023-09-07T04:26:52;19.47;;;9.50;;
3068;SDS011;1545;51.728;8.796;2023-09-07T04:29:18;15.57;;;8.83;;
3068;SDS011;1545;51.728;8.796;2023-09-07T04:31:44;17.10;;;10.17;;
3068;SDS011;1545;51.728;8.796;2023-09-07T04:34:09;20.67;;;9.37;;
3068;SDS011;1545;51.728;8.796;2023-09-07T04:36:35;12.13;;;9.43;;
3068;SDS011;1545;51.728;8.796;2023-09-07T04:39:00;21.10;;;10.37;;
3068;SDS011;1545;51.728;8.796;2023-09-07T04:41:28;18.63;;;9.67;;
3068;SDS011;1545;51.728;8.796;2023-09-07T04:43:54;19.53;;;10.20;;
3068;SDS011;1545;51.728;8.796;2023-09-07T04:46:21;13.30;;;9.57;;
3068;SDS011;1545;51.728;8.796;2023-09-07T04:48:47;16.17;;;9.43;;
3068;SDS011;1545;51.728;8.796;2023-09-07T04:51:12;20.53;;;10.30;;
3068;SDS011;1545;51.728;8.796;2023-09-07T04:53:38;16.23;;;10.03;;
3068;SDS011;1545;51.728;8.796;2023-09-07T04:56:05;13.93;;;9.73;;
3068;SDS011;1545;51.728;8.796;2023-09-07T04:58:32;15.27;;;10.40;;
3068;SDS011;1545;51.728;8.796;2023-09-07T05:01:01;20.23;;;10.60;;
3068;SDS011;1545;51.728;8.796;2023-09-07T05:03:31;20.83;;;10.00;;
3068;SDS011;1545;51.728;8.796;2023-09-07T05:05:57;16.90;;;10.03;;
3068;SDS011;1545;51.728;8.796;2023-09-07T05:08:23;21.83;;;9.53;;
3068;SDS011;1545;51.728;8.796;2023-09-07T05:10:54;25.83;;;10.97;;
3068;SDS011;1545;51.728;8.796;2023-09-07T05:13:27;19.17;;;10.53;;
3068;SDS011;1545;51.728;8.796;2023-09-07T05:15:53;21.13;;;9.83;;
3068;SDS011;1545;51.728;8.796;2023-09-07T05:18:20;18.27;;;10.03;;
3068;SDS011;1545;51.728;8.796;2023-09-07T05:20:47;15.40;;;9.87;;
3068;SDS011;1545;51.728;8.796;2023-09-07T05:23:17;19.67;;;9.63;;
3068;SDS011;1545;51.728;8.796;2023-09-07T05:25:47;15.50;;;10.03;;
3068;SDS011;1545;51.728;8.796;2023-09-07T05:28:14;17.43;;;9.90;;
3068;SDS011;1545;51.728;8.796;2023-09-07T05:30:40;19.17;;;10.13;;
3068;SDS011;1545;51.728;8.796;2023-09-07T05:33:06;18.10;;;10.60;;
3068;SDS011;1545;51.728;8.796;2023-09-07T05:35:33;18.07;;;10.37;;
3068;SDS011;1545;51.728;8.796;2023-09-07T05:37:59;16.80;;;9.83;;
3068;SDS011;1545;51.728;8.796;2023-09-07T05:40:24;13.97;;;9.93;;
3068;SDS011;1545;51.728;8.796;2023-09-07T05:42:50;16.00;;;10.00;;
3068;SDS011;1545;51.728;8.796;2023-09-07T05:45:16;16.00;;;10.00;;
3068;SDS011;1545;51.728;8.796;2023-09-07T05:47:41;12.93;;;9.67;;
3068;SDS011;1545;51.728;8.796;2023-09-07T05:50:07;22.10;;;10.10;;
3068;SDS011;1545;51.728;8.796;2023-09-07T05:52:32;15.70;;;9.73;;
3068;SDS011;1545;51.728;8.796;2023-09-07T05:54:58;16.80;;;9.57;;
3068;SDS011;1545;51.728;8.796;2023-09-07T05:57:23;16.50;;;9.93;;
3068;SDS011;1545;51.728;8.796;2023-09-07T05:59:49;15.43;;;9.60;;
3068;SDS011;1545;51.728;8.796;2023-09-07T06:02:14;18.73;;;9.77;;
3068;SDS011;1545;51.728;8.796;2023-09-07T06:04:40;19.67;;;9.60;;
3068;SDS011;1545;51.728;8.796;2023-09-07T06:07:05;17.70;;;9.40;;
3068;SDS011;1545;51.728;8.796;2023-09-07T06:09:31;15.83;;;9.57;;
3068;SDS011;1545;51.728;8.796;2023-09-07T06:11:56;24.03;;;10.20;;
3068;SDS011;1545;51.728;8.796;2023-09-07T06:14:22;17.57;;;9.80;;
3068;SDS011;1545;51.728;8.796;2023-09-07T06:16:47;12.33;;;9.10;;
3068;SDS011;1545;51.728;8.796;2023-09-07T06:19:13;15.17;;;9.37;;
3068;SDS011;1545;51.728;8.796;2023-09-07T06:21:38;16.33;;;9.53;;
3068;SDS011;1545;51.728;8.796;2023-09-07T06:24:04;16.83;;;10.13;;
3068;SDS011;1545;51.728;8.796;2023-09-07T06:26:31;15.47;;;9.00;;
3068;SDS011;1545;51.728;8.796;2023-09-07T06:28:57;19.87;;;10.23;;
3068;SDS011;1545;51.728;8.796;2023-09-07T06:31:22;13.77;;;8.97;;
3068;SDS011;1545;51.728;8.796;2023-09-07T06:33:48;12.97;;;9.57;;
3068;SDS011;1545;51.728;8.796;2023-09-07T06:36:13;17.87;;;9.63;;
3068;SDS011;1545;51.728;8.796;2023-09-07T06:38:39;14.27;;;9.27;;
3068;SDS011;1545;51.728;8.796;2023-09-07T06:41:05;15.50;;;9.17;;
3068;SDS011;1545;51.728;8.796;2023-09-07T06:43:32;14.30;;;9.80;;
3068;SDS011;1545;51.728;8.796;2023-09-07T06:46:07;14.83;;;8.80;;
3068;SDS011;1545;51.728;8.796;2023-09-07T06:48:34;11.90;;;8.93;;
3068;SDS011;1545;51.728;8.796;2023-09-07T06:51:04;17.60;;;9.37;;
3068;SDS011;1545;51.728;8.796;2023-09-07T06:53:30;12.87;;;8.60;;
3068;SDS011;1545;51.728;8.796;2023-09-07T06:55:59;15.73;;;8.97;;
3068;SDS011;1545;51.728;8.796;2023-09-07T06:58:25;14.50;;;8.80;;
3068;SDS011;1545;51.728;8.796;2023-09-07T07:00:52;12.17;;;8.93;;
3068;SDS011;1545;51.728;8.796;2023-09-07T07:03:18;12.07;;;8.23;;
3068;SDS011;1545;51.728;8.796;2023-09-07T07:05:43;20.43;;;8.73;;
3068;SDS011;1545;51.728;8.796;2023-09-07T07:08:09;22.83;;;8.50;;
3068;SDS011;1545;51.728;8.796;2023-09-07T07:10:35;15.40;;;8.33;;
3068;SDS011;1545;51.728;8.796;2023-09-07T07:13:00;16.50;;;8.70;;
3068;SDS011;1545;51.728;8.796;2023-09-07T07:15:26;19.57;;;8.60;;
3068;SDS011;1545;51.728;8.796;2023-09-07T07:17:51;11.40;;;8.50;;
3068;SDS011;1545;51.728;8.796;2023-09-07T07:20:17;20.87;;;8.50;;
3068;SDS011;1545;51.728;8.796;2023-09-07T07:22:42;22.57;;;8.27;;
3068;SDS011;1545;51.728;8.796;2023-09-07T07:25:08;12.57;;;7.80;;
3068;SDS011;1545;51.728;8.796;2023-09-07T07:27:35;12.80;;;8.03;;
3068;SDS011;1545;51.728;8.796;2023-09-07T07:30:00;13.17;;;8.20;;
3068;SDS011;1545;51.728;8.796;2023-09-07T07:32:26;7.60;;;5.80;;
3068;SDS011;1545;51.728;8.796;2023-09-07T07:34:52;22.03;;;8.33;;
3068;SDS011;1545;51.728;8.796;2023-09-07T07:37:17;14.57;;;8.23;;
3068;SDS011;1545;51.728;8.796;2023-09-07T07:39:43;17.93;;;8.27;;
3068;SDS011;1545;51.728;8.796;2023-09-07T07:42:08;13.07;;;8.00;;
3068;SDS011;1545;51.728;8.796;2023-09-07T07:44:34;15.83;;;8.13;;
3068;SDS011;1545;51.728;8.796;2023-09-07T07:46:59;16.27;;;6.90;;
3068;SDS011;1545;51.728;8.796;2023-09-07T07:49:25;11.77;;;7.30;;
3068;SDS011;1545;51.728;8.796;2023-09-07T07:51:52;11.87;;;7.67;;
3068;SDS011;1545;51.728;8.796;2023-09-07T07:54:20;11.13;;;6.55;;
3068;SDS011;1545;51.728;8.796;2023-09-07T07:56:47;11.20;;;6.72;;
3068;SDS011;1545;51.728;8.796;2023-09-07T07:59:13;16.00;;;7.53;;
3068;SDS011;1545;51.728;8.796;2023-09-07T08:01:38;13.35;;;6.95;;
3068;SDS011;1545;51.728;8.796;2023-09-07T08:04:05;14.82;;;6.90;;
3068;SDS011;1545;51.728;8.796;2023-09-07T08:06:32;10.77;;;7.20;;
3068;SDS011;1545;51.728;8.796;2023-09-07T08:08:57;11.85;;;6.95;;
3068;SDS011;1545;51.728;8.796;2023-09-07T08:11:23;9.38;;;6.93;;
3068;SDS011;1545;51.728;8.796;2023-09-07T08:13:48;12.18;;;6.82;;
3068;SDS011;1545;51.728;8.796;2023-09-07T08:16:15;9.95;;;6.72;;
3068;SDS011;1545;51.728;8.796;2023-09-07T08:18:40;14.68;;;6.90;;
3068;SDS011;1545;51.728;8.796;2023-09-07T08:21:06;14.85;;;6.85;;
3068;SDS011;1545;51.728;8.796;2023-09-07T08:23:31;8.23;;;6.50;;
3068;SDS011;1545;51.728;8.796;2023-09-07T08:25:57;9.05;;;6.70;;
3068;SDS011;1545;51.728;8.796;2023-09-07T08:28:23;18.95;;;7.18;;
3068;SDS011;1545;51.728;8.796;2023-09-07T08:30:50;11.70;;;7.38;;
3068;SDS011;1545;51.728;8.796;2023-09-07T08:33:18;15.23;;;7.18;;
3068;SDS011;1545;51.728;8.796;2023-09-07T08:35:44;18.55;;;6.70;;
3068;SDS011;1545;51.728;8.796;2023-09-07T08:38:10;9.65;;;6.20;;
3068;SDS011;1545;51.728;8.796;2023-09-07T08:40:36;10.25;;;6.70;;
3068;SDS011;1545;51.728;8.796;2023-09-07T08:43:06;9.63;;;6.60;;
3068;SDS011;1545;51.728;8.796;2023-09-07T08:45:37;8.18;;;6.53;;
3068;SDS011;1545;51.728;8.796;2023-09-07T08:48:08;11.40;;;6.68;;
3068;SDS011;1545;51.728;8.796;2023-09-07T08:50:35;10.13;;;6.65;;
3068;SDS011;1545;51.728;8.796;2023-09-07T08:53:03;8.63;;;6.38;;
3068;SDS011;1545;51.728;8.796;2023-09-07T08:55:29;11.65;;;6.10;;
3068;SDS011;1545;51.728;8.796;2023-09-07T08:57:54;14.98;;;6.75;;
3068;SDS011;1545;51.728;8.796;2023-09-07T09:00:21;12.93;;;6.35;;
3068;SDS011;1545;51.728;8.796;2023-09-07T09:02:48;9.77;;;6.10;;
3068;SDS011;1545;51.728;8.796;2023-09-07T09:05:15;10.15;;;5.82;;
3068;SDS011;1545;51.728;8.796;2023-09-07T09:07:43;7.50;;;6.45;;
3068;SDS011;1545;51.728;8.796;2023-09-07T09:10:08;18.63;;;6.72;;
3068;SDS011;1545;51.728;8.796;2023-09-07T09:12:34;9.80;;;6.15;;
3068;SDS011;1545;51.728;8.796;2023-09-07T09:15:00;8.93;;;6.75;;
3068;SDS011;1545;51.728;8.796;2023-09-07T09:17:29;11.43;;;6.82;;
3068;SDS011;1545;51.728;8.796;2023-09-07T09:19:55;10.40;;;6.40;;
3068;SDS011;1545;51.728;8.796;2023-09-07T09:22:20;9.65;;;6.55;;
3068;SDS011;1545;51.728;8.796;2023-09-07T09:24:49;8.98;;;6.15;;
3068;SDS011;1545;51.728;8.796;2023-09-07T09:27:14;14.13;;;6.53;;
3068;SDS011;1545;51.728;8.796;2023-09-07T09:29:40;10.68;;;6.85;;
3068;SDS011;1545;51.728;8.796;2023-09-07T09:32:06;11.45;;;7.03;;
3068;SDS011;1545;51.728;8.796;2023-09-07T09:34:36;12.38;;;6.72;;
3068;SDS011;1545;51.728;8.796;2023-09-07T09:37:02;10.25;;;7.60;;
3068;SDS011;1545;51.728;8.796;2023-09-07T09:39:29;11.32;;;7.25;;
3068;SDS011;1545;51.728;8.796;2023-09-07T09:41:55;13.70;;;7.05;;
3068;SDS011;1545;51.728;8.796;2023-09-07T09:44:21;9.20;;;7.20;;
3068;SDS011;1545;51.728;8.796;2023-09-07T09:46:53;20.48;;;7.20;;
3068;SDS011;1545;51.728;8.796;2023-09-07T09:49:20;10.60;;;7.63;;
3068;SDS011;1545;51.728;8.796;2023-09-07T09:51:48;13.57;;;8.07;;
3068;SDS011;1545;51.728;8.796;2023-09-07T09:54:17;10.80;;;7.00;;
3068;SDS011;1545;51.728;8.796;2023-09-07T09:56:43;10.33;;;7.90;;
3068;SDS011;1545;51.728;8.796;2023-09-07T09:59:10;12.30;;;7.80;;
3068;SDS011;1545;51.728;8.796;2023-09-07T10:01:37;10.57;;;7.70;;
3068;SDS011;1545;51.728;8.796;2023-09-07T10:04:16;9.13;;;7.00;;
3068;SDS011;1545;51.728;8.796;2023-09-07T10:09:23;12.17;;;7.67;;
3068;SDS011;1545;51.728;8.796;2023-09-07T10:11:57;11.17;;;7.63;;
3068;SDS011;1545;51.728;8.796;2023-09-07T10:14:24;15.20;;;7.83;;
3068;SDS011;1545;51.728;8.796;2023-09-07T10:16:53;14.00;;;7.50;;
3068;SDS011;1545;51.728;8.796;2023-09-07T10:19:24;11.40;;;7.23;;
3068;SDS011;1545;51.728;8.796;2023-09-07T10:21:52;13.50;;;7.40;;
3068;SDS011;1545;51.728;8.796;2023-09-07T10:29:42;13.07;;;7.17;;
3068;SDS011;1545;51.728;8.796;2023-09-07T10:32:10;13.63;;;7.43;;
3068;SDS011;1545;51.728;8.796;2023-09-07T10:34:37;11.50;;;7.03;;
3068;SDS011;1545;51.728;8.796;2023-09-07T10:37:04;7.83;;;6.57;;
3068;SDS011;1545;51.728;8.796;2023-09-07T10:39:33;15.90;;;6.87;;
3068;SDS011;1545;51.728;8.796;2023-09-07T10:41:59;17.40;;;7.23;;
3068;SDS011;1545;51.728;8.796;2023-09-07T10:44:27;11.13;;;7.57;;
3068;SDS011;1545;51.728;8.796;2023-09-07T10:46:54;11.80;;;7.10;;
3068;SDS011;1545;51.728;8.796;2023-09-07T10:49:21;11.27;;;6.93;;
3068;SDS011;1545;51.728;8.796;2023-09-07T10:51:47;11.50;;;7.23;;
3068;SDS011;1545;51.728;8.796;2023-09-07T10:54:14;10.53;;;6.67;;
3068;SDS011;1545;51.728;8.796;2023-09-07T10:56:44;13.73;;;6.53;;
3068;SDS011;1545;51.728;8.796;2023-09-07T10:59:10;9.43;;;6.65;;
3068;SDS011;1545;51.728;8.796;2023-09-07T11:01:37;10.53;;;6.00;;
3068;SDS011;1545;51.728;8.796;2023-09-07T11:04:03;12.53;;;6.47;;
3068;SDS011;1545;51.728;8.796;2023-09-07T11:06:30;7.63;;;6.00;;
3068;SDS011;1545;51.728;8.796;2023-09-07T11:08:55;16.60;;;6.53;;
3068;SDS011;1545;51.728;8.796;2023-09-07T11:11:24;8.57;;;6.50;;
3068;SDS011;1545;51.728;8.796;2023-09-07T11:13:51;11.77;;;6.73;;
3068;SDS011;1545;51.728;8.796;2023-09-07T11:16:16;16.17;;;6.18;;
3068;SDS011;1545;51.728;8.796;2023-09-07T11:18:42;12.32;;;6.80;;
3068;SDS011;1545;51.728;8.796;2023-09-07T11:21:08;11.90;;;6.55;;
3068;SDS011;1545;51.728;8.796;2023-09-07T11:23:35;12.23;;;6.67;;
3068;SDS011;1545;51.728;8.796;2023-09-07T11:26:04;9.97;;;6.40;;
3068;SDS011;1545;51.728;8.796;2023-09-07T11:28:30;8.00;;;6.38;;
3068;SDS011;1545;51.728;8.796;2023-09-07T11:30:56;7.78;;;6.35;;
3068;SDS011;1545;51.728;8.796;2023-09-07T11:33:23;12.45;;;6.25;;
3068;SDS011;1545;51.728;8.796;2023-09-07T11:35:49;8.77;;;6.30;;
3068;SDS011;1545;51.728;8.796;2023-09-07T11:38:16;10.85;;;6.85;;
3068;SDS011;1545;51.728;8.796;2023-09-07T11:40:42;10.95;;;6.10;;
3068;SDS011;1545;51.728;8.796;2023-09-07T11:43:11;11.18;;;6.65;;
3068;SDS011;1545;51.728;8.796;2023-09-07T11:45:41;13.23;;;6.82;;
3068;SDS011;1545;51.728;8.796;2023-09-07T11:48:08;9.63;;;6.60;;
3068;SDS011;1545;51.728;8.796;2023-09-07T11:50:34;8.43;;;5.95;;
3068;SDS011;1545;51.728;8.796;2023-09-07T11:53:01;6.47;;;5.22;;
3068;SDS011;1545;51.728;8.796;2023-09-07T11:55:26;7.82;;;6.50;;
3068;SDS011;1545;51.728;8.796;2023-09-07T11:57:52;11.10;;;6.55;;
3068;SDS011;1545;51.728;8.796;2023-09-07T12:00:18;9.02;;;6.70;;
3068;SDS011;1545;51.728;8.796;2023-09-07T12:02:44;15.27;;;6.55;;
3068;SDS011;1545;51.728;8.796;2023-09-07T12:05:09;12.27;;;6.20;;
3068;SDS011;1545;51.728;8.796;2023-09-07T12:07:35;14.32;;;6.75;;
3068;SDS011;1545;51.728;8.796;2023-09-07T12:10:01;9.65;;;6.30;;
3068;SDS011;1545;51.728;8.796;2023-09-07T12:12:27;20.88;;;6.80;;
3068;SDS011;1545;51.728;8.796;2023-09-07T12:14:53;9.63;;;6.35;;
3068;SDS011;1545;51.728;8.796;2023-09-07T12:17:21;12.10;;;7.20;;
3068;SDS011;1545;51.728;8.796;2023-09-07T12:19:47;10.70;;;6.57;;
3068;SDS011;1545;51.728;8.796;2023-09-07T12:22:12;9.15;;;6.47;;
3068;SDS011;1545;51.728;8.796;2023-09-07T12:24:38;12.75;;;6.53;;
3068;SDS011;1545;51.728;8.796;2023-09-07T12:27:03;21.73;;;5.85;;
3068;SDS011;1545;51.728;8.796;2023-09-07T12:29:29;12.07;;;6.30;;
3068;SDS011;1545;51.728;8.796;2023-09-07T12:31:55;12.15;;;6.68;;
3068;SDS011;1545;51.728;8.796;2023-09-07T12:34:20;11.20;;;6.38;;
3068;SDS011;1545;51.728;8.796;2023-09-07T12:36:46;11.50;;;6.50;;
3068;SDS011;1545;51.728;8.796;2023-09-07T12:39:11;9.88;;;6.80;;
3068;SDS011;1545;51.728;8.796;2023-09-07T12:41:38;12.70;;;6.97;;
3068;SDS011;1545;51.728;8.796;2023-09-07T12:44:04;8.82;;;6.88;;
3068;SDS011;1545;51.728;8.796;2023-09-07T12:46:30;10.77;;;6.40;;
3068;SDS011;1545;51.728;8.796;2023-09-07T12:48:57;11.30;;;7.00;;
3068;SDS011;1545;51.728;8.796;2023-09-07T12:51:22;16.10;;;6.90;;
3068;SDS011;1545;51.728;8.796;2023-09-07T12:53:48;14.57;;;6.90;;
3068;SDS011;1545;51.728;8.796;2023-09-07T12:56:13;16.55;;;7.00;;
3068;SDS011;1545;51.728;8.796;2023-09-07T12:58:40;11.85;;;7.13;;
3068;SDS011;1545;51.728;8.796;2023-09-07T13:01:09;13.15;;;7.10;;
3068;SDS011;1545;51.728;8.796;2023-09-07T13:03:35;9.85;;;7.00;;
3068;SDS011;1545;51.728;8.796;2023-09-07T13:06:01;12.82;;;7.40;;
3068;SDS011;1545;51.728;8.796;2023-09-07T13:08:27;16.90;;;7.40;;
3068;SDS011;1545;51.728;8.796;2023-09-07T13:10:54;12.98;;;6.70;;
3068;SDS011;1545;51.728;8.796;2023-09-07T13:13:20;12.45;;;7.28;;
3068;SDS011;1545;51.728;8.796;2023-09-07T13:15:48;16.42;;;7.20;;
3068;SDS011;1545;51.728;8.796;2023-09-07T13:18:13;25.85;;;6.93;;
3068;SDS011;1545;51.728;8.796;2023-09-07T13:20:39;11.40;;;6.97;;
3068;SDS011;1545;51.728;8.796;2023-09-07T13:23:05;11.30;;;6.18;;
3068;SDS011;1545;51.728;8.796;2023-09-07T13:25:30;8.05;;;6.72;;
3068;SDS011;1545;51.728;8.796;2023-09-07T13:27:56;11.90;;;6.88;;
3068;SDS011;1545;51.728;8.796;2023-09-07T13:30:22;14.65;;;7.25;;
3068;SDS011;1545;51.728;8.796;2023-09-07T13:32:47;14.73;;;7.32;;
3068;SDS011;1545;51.728;8.796;2023-09-07T13:35:14;27.52;;;7.47;;
3068;SDS011;1545;51.728;8.796;2023-09-07T13:37:40;9.45;;;6.68;;
3068;SDS011;1545;51.728;8.796;2023-09-07T13:40:06;12.30;;;6.90;;
3068;SDS011;1545;51.728;8.796;2023-09-07T13:42:32;14.18;;;7.07;;
3068;SDS011;1545;51.728;8.796;2023-09-07T13:44:58;10.52;;;6.60;;
3068;SDS011;1545;51.728;8.796;2023-09-07T13:47:24;15.95;;;7.28;;
3068;SDS011;1545;51.728;8.796;2023-09-07T13:49:49;8.98;;;7.03;;
3068;SDS011;1545;51.728;8.796;2023-09-07T13:52:15;12.02;;;7.00;;
3068;SDS011;1545;51.728;8.796;2023-09-07T13:54:40;9.18;;;6.95;;
3068;SDS011;1545;51.728;8.796;2023-09-07T13:57:06;23.40;;;6.82;;
3068;SDS011;1545;51.728;8.796;2023-09-07T13:59:33;13.80;;;7.07;;
3068;SDS011;1545;51.728;8.796;2023-09-07T14:01:59;15.73;;;7.28;;
3068;SDS011;1545;51.728;8.796;2023-09-07T14:04:26;12.55;;;6.32;;
3068;SDS011;1545;51.728;8.796;2023-09-07T14:06:52;8.68;;;6.22;;
3068;SDS011;1545;51.728;8.796;2023-09-07T14:09:17;10.30;;;6.93;;
3068;SDS011;1545;51.728;8.796;2023-09-07T14:11:43;11.35;;;6.65;;
3068;SDS011;1545;51.728;8.796;2023-09-07T14:14:09;9.07;;;6.15;;
3068;SDS011;1545;51.728;8.796;2023-09-07T14:16:35;14.15;;;6.78;;
3068;SDS011;1545;51.728;8.796;2023-09-07T14:19:01;11.30;;;6.78;;
3068;SDS011;1545;51.728;8.796;2023-09-07T14:21:26;10.70;;;6.05;;
3068;SDS011;1545;51.728;8.796;2023-09-07T14:23:52;11.70;;;6.78;;
3068;SDS011;1545;51.728;8.796;2023-09-07T14:26:18;10.38;;;6.20;;
3068;SDS011;1545;51.728;8.796;2023-09-07T14:28:43;11.38;;;7.00;;
3068;SDS011;1545;51.728;8.796;2023-09-07T14:31:09;13.10;;;6.55;;
3068;SDS011;1545;51.728;8.796;2023-09-07T14:33:35;10.38;;;6.72;;
3068;SDS011;1545;51.728;8.796;2023-09-07T14:36:04;11.07;;;7.07;;
3068;SDS011;1545;51.728;8.796;2023-09-07T14:38:31;16.00;;;7.05;;
3068;SDS011;1545;51.728;8.796;2023-09-07T14:40:59;11.48;;;6.43;;
3068;SDS011;1545;51.728;8.796;2023-09-07T14:43:25;9.00;;;6.10;;
3068;SDS011;1545;51.728;8.796;2023-09-07T14:45:51;12.02;;;6.80;;
3068;SDS011;1545;51.728;8.796;2023-09-07T14:48:16;17.63;;;7.05;;
3068;SDS011;1545;51.728;8.796;2023-09-07T14:50:42;10.40;;;6.93;;
3068;SDS011;1545;51.728;8.796;2023-09-07T14:53:08;10.30;;;6.53;;
3068;SDS011;1545;51.728;8.796;2023-09-07T14:55:33;12.23;;;6.55;;
3068;SDS011;1545;51.728;8.796;2023-09-07T14:57:59;13.77;;;6.28;;
3068;SDS011;1545;51.728;8.796;2023-09-07T15:00:24;11.88;;;6.72;;
3068;SDS011;1545;51.728;8.796;2023-09-07T15:02:52;10.88;;;6.32;;
3068;SDS011;1545;51.728;8.796;2023-09-07T15:05:18;12.27;;;6.57;;